Thursday, December 30, 2021

Piper PA-28-235 Cherokee, N8591W: Accident occurred December 30, 2021 near Presidio Lely International Airport (KPRS), Presidio County, Texas

National Transportation Safety Board accident number: CEN22LA091

https://registry.faa.gov/N8591W





Tobias Penner Peters




PRESIDIO, Texas –– The Presidio County Sheriff's Office is asking the public's help to locate a dangerous fugitive.

According to authorities, Tobias Penner Peters is wanted for his involvement in a human trafficking attempt on December 30, 2021.

Peters attempted to smuggle five undocumented immigrants into the U.S. using a small plane.

According to the Presidio County Sheriff's Office, Peters lost control of the plane and crashed just north of the Presidio airport. Images released by authorities show significant damage to the aircraft and blood on the seats.

After the crash Peters fled the scene, leaving five illegal aliens with severe bodily injuries behind.

Law enforcement believes Peters sustained severe head trauma and may have possibly lost an eye in the crash.

Peters is described as being 6' 2" and 185 lbs. He has blue eyes and red hair.

The  Presidio County Sheriff's Office has obtained multiple warrants for Peter –– including felony human smuggling, evading arrest, and deadly conduct.

Peters's last known address is in Seminole, Texas, but he is known to frequent Ojinaja, Mexico.

Anyone with information regarding Peters's whereabouts is asked to contact the Presidio County Sheriff's Office at 432-729-4848 or 432-729-4911.




Presidio County Sheriff's Office -  

PRESIDIO, Texas - Smuggling Attempt 

Presidio County Sheriff's Deputies responded to an airplane crash North of the Presidio International Airport at approximately 3:51 p.m.. Deputies arrived on scene and assisted the injured passengers where they discovered that the crash was a smuggling attempt gone wrong. The pilot attempted to smuggle several undocumented individuals from Presidio by air. Investigators believe the excess weight of the passengers (6 passengers in a 4 seat aircraft) and low fuel contributed to the cause of the accident. 

Presidio Police Officers, U.S. Border patrol, Presidio EMS, TXDOT and Presidio Fire Department arrived on scene to assist the search and rescue efforts. Some of the undocumented individuals were transported to hospitals in El Paso and others were detained by U.S. Border Patrol. The pilot absconded and is wanted for questioning. The Presidio County Sheriff's Office will continue investigating and filing smuggling charges on the person or persons involved.

If you have any information on this or other illegal activities please contact the Presidio County Sheriff's Office 432-729-4848. 



EL PASO, Texas – An alleged smuggling attempt ended in a plane crash North of the Presidio International Airport on Thursday.

Deputies with the Presidio County Sheriff’s Office found and assisted individuals injured during the crash. An investigation by authorities found the pilot of the Piper PA-28-235 Cherokee was allegedly smuggling undocumented migrants out of Presidio, Texas by air.

“Investigators believe the excess weight of the passengers (6 passengers in a 4 seat aircraft) and low fuel contributed to the cause of the accident,” a statement from the Presidio County Sheriff’s Office read.

An unspecified number of migrants were airlifted to the hospitals in El Paso, according to the statement. The pilot fled the scene and is wanted for questioning by investigators.

“The Presidio County Sheriff’s Office will continue investigating and filing smuggling charges on the person or persons involved,” the statement said.


PRESIDIO COUNTY, Texas -- Several people were injured when a small plane being used to smuggle migrants crashed north of the Presidio International Airport on Thursday afternoon, Presidio County Sheriff's deputies said.

That crash happened just before 4 p.m.

Investigators said the excess weight of the smuggled passengers - a half-dozen people in a four-seat aircraft - was a likely cause of the crash. In addition, deputies said the plane was low on fuel at the time it went down.

Officials said some of the injured migrants were transported to hospitals in El Paso for treatment, while the pilot fled the crash site and was being sought by authorities.

Deputies asked that anyone with information about this smuggling operation to contact the Presidio County Sheriff's Office at 432-729-4848.

15 comments:

  1. Not sure what he told his buddy Henry before borrowing the plane, but Henry's 172 and both R44's might be subject to seizure if things go off the rails.

    Airmen registry has a Mr. Peters opt-out, possible match on first/last names, no medical or pilot cert.

    Nothing on ADS-B for the flight.

    ReplyDelete
    Replies
    1. Henry's Airmen Registry hit is interesting.

      Delete
    2. I hope all of ol' Henry's airplanes / helicopters are subject to seizure and that Henry is facing a subpoena. Events like this don't happen in a vacuum. Tobias hardly looks like a world beater in terms of ability and intelligence - he likely had accomplices on this side of the border and it's time those dominoes start falling.

      Delete
    3. As another comment said, Henry's Airmen Registry IS interesting. A brief search of Henry and the folks who appear to be his relatives reveals some interesting information. Henry has ties to construction companies owned by Americans but doing business in Mexico; a potentially interesting connection with human trafficking. Among Henry's FB friends is a David Peters, who appears to be confined to a wheelchair and who also bears a strong resemblance to Tobias.

      I have a feeling that Henry and his relations have some 'splainin to do and that Tobias is going to show up before long.

      Delete
  2. What a freaky looking criminal. The last time I saw a forehead like that it had two electrical connectors on each side of the neck.

    ReplyDelete
  3. The scary part is how they knew he lost an eye .. that cockpit must have been a mess :(

    ReplyDelete
    Replies
    1. Whoever was sitting right seat got a look at him in whatever condition he was in as they disembarked.

      Delete
    2. Two were seated in the front right seat.

      Delete
    3. Fair enough - after the injured person on the lap of the right seater was moved out of the way, the right seater underneath, who was protected from panel strike by the one in his lap, got the best look at the pilot!

      Delete
  4. Presidio International Airport does not look as you might expect. What an area to off-field land, wander to the road and wait for someone to pick you up after using your one good eye to call on the phone.

    Photo:
    https://goo.gl/maps/aPG99uR9zxDNV9V4A

    ReplyDelete
  5. Aaannnddd... here is your obligatory post of the METARS around the time of the accident:
    KPRS 292315Z AUTO 20008KT 10SM CLR 24/05 A2986
    KPRS 292255Z AUTO 20011KT 10SM CLR 24/05 A2986
    KPRS 292235Z AUTO 20010KT 10SM CLR 24/05 A2985
    KPRS 292215Z AUTO 16009KT 10SM SCT095 24/05 A2985
    KPRS 292155Z AUTO 19012KT 10SM SCT095 24/05 A2985
    KPRS 292135Z AUTO 18010G14KT 10SM CLR 24/05 A2984
    KPRS 292115Z AUTO 17005G15KT 10SM CLR 24/05 A2985
    KPRS 292055Z AUTO 00000KT 10SM CLR 22/05 A2985

    Slightly gusty winds earlier in the day, which would normally not be a factor, but when you are severely overloaded, even tame winds can be a factor.

    ReplyDelete
    Replies
    1. Crashing north of the airport means he either departed RW35 with those tailwinds or succeeded in the 180 turn after departing RW17.

      Either way, he managed a survivable landing that wasn't another impossible turn stall-spin calamity. Did okay for an uncertified pilot who took on a side job.

      Delete
  6. Police say he may have lost an eye. I can only imagine there is an eyeball rolling around in the wreckage. Hilarious.

    ReplyDelete
  7. Pilot Toby may not have fled to Ojinaga. Recent reports say that cartels are aggressively moving in on independent migrant smugglers in that area.

    https://www.borderreport.com/hot-topics/border-crime/mexican-authorities-looking-for-13-missing-migrants-south-of-presidio-texas/

    ReplyDelete
  8. I think we should all assist law enforcement and keep and eye out for this guy.

    ReplyDelete